sensor_id;sensor_type;location;lat;lon;timestamp;temperature;humidity
29241;DHT22;16268;49.880;8.648;2022-08-14T00:01:06;22.90;99.90
29241;DHT22;16268;49.880;8.648;2022-08-14T00:03:32;22.90;99.90
29241;DHT22;16268;49.880;8.648;2022-08-14T00:05:59;22.80;99.90
29241;DHT22;16268;49.880;8.648;2022-08-14T00:08:25;22.70;99.90
29241;DHT22;16268;49.880;8.648;2022-08-14T00:10:51;22.70;99.90
29241;DHT22;16268;49.880;8.648;2022-08-14T00:13:19;22.60;99.90
29241;DHT22;16268;49.880;8.648;2022-08-14T00:15:47;22.60;99.90
29241;DHT22;16268;49.880;8.648;2022-08-14T00:18:17;22.60;99.90
29241;DHT22;16268;49.880;8.648;2022-08-14T00:20:44;22.50;99.90
29241;DHT22;16268;49.880;8.648;2022-08-14T00:23:12;22.50;99.90
29241;DHT22;16268;49.880;8.648;2022-08-14T00:25:38;22.50;99.90
29241;DHT22;16268;49.880;8.648;2022-08-14T00:28:07;22.40;99.90
29241;DHT22;16268;49.880;8.648;2022-08-14T00:30:33;22.30;99.90
29241;DHT22;16268;49.880;8.648;2022-08-14T00:32:58;22.30;99.90
29241;DHT22;16268;49.880;8.648;2022-08-14T00:35:26;22.30;99.90
29241;DHT22;16268;49.880;8.648;2022-08-14T00:37:53;22.30;99.90
29241;DHT22;16268;49.880;8.648;2022-08-14T00:40:19;22.20;99.90
29241;DHT22;16268;49.880;8.648;2022-08-14T00:42:45;22.20;99.90
29241;DHT22;16268;49.880;8.648;2022-08-14T00:45:12;22.20;99.90
29241;DHT22;16268;49.880;8.648;2022-08-14T00:47:39;22.20;99.90
29241;DHT22;16268;49.880;8.648;2022-08-14T00:50:07;22.10;99.90
29241;DHT22;16268;49.880;8.648;2022-08-14T00:52:33;22.10;99.90
29241;DHT22;16268;49.880;8.648;2022-08-14T00:54:59;22.10;99.90
29241;DHT22;16268;49.880;8.648;2022-08-14T00:57:28;22.10;99.90
29241;DHT22;16268;49.880;8.648;2022-08-14T00:59:54;22.00;99.90
29241;DHT22;16268;49.880;8.648;2022-08-14T01:02:22;22.00;99.90
29241;DHT22;16268;49.880;8.648;2022-08-14T01:04:51;22.00;99.90
29241;DHT22;16268;49.880;8.648;2022-08-14T01:07:18;22.00;99.90
29241;DHT22;16268;49.880;8.648;2022-08-14T01:09:49;22.00;99.90
29241;DHT22;16268;49.880;8.648;2022-08-14T01:12:17;22.00;99.90
29241;DHT22;16268;49.880;8.648;2022-08-14T01:14:43;21.90;99.90
29241;DHT22;16268;49.880;8.648;2022-08-14T01:17:09;21.90;99.90
29241;DHT22;16268;49.880;8.648;2022-08-14T01:19:35;21.90;99.90
29241;DHT22;16268;49.880;8.648;2022-08-14T01:22:19;21.90;99.90
29241;DHT22;16268;49.880;8.648;2022-08-14T01:24:45;21.90;99.90
29241;DHT22;16268;49.880;8.648;2022-08-14T01:27:18;21.80;99.90
29241;DHT22;16268;49.880;8.648;2022-08-14T01:29:46;21.80;99.90
29241;DHT22;16268;49.880;8.648;2022-08-14T01:32:11;21.80;99.90
29241;DHT22;16268;49.880;8.648;2022-08-14T01:34:37;21.80;99.90
29241;DHT22;16268;49.880;8.648;2022-08-14T01:37:03;21.70;99.90
29241;DHT22;16268;49.880;8.648;2022-08-14T01:39:29;21.70;99.90
29241;DHT22;16268;49.880;8.648;2022-08-14T01:41:55;21.70;99.90
29241;DHT22;16268;49.880;8.648;2022-08-14T01:44:25;21.70;99.90
29241;DHT22;16268;49.880;8.648;2022-08-14T01:46:53;21.60;99.90
29241;DHT22;16268;49.880;8.648;2022-08-14T01:49:19;21.60;99.90
29241;DHT22;16268;49.880;8.648;2022-08-14T01:51:45;21.60;99.90
29241;DHT22;16268;49.880;8.648;2022-08-14T01:54:16;21.50;99.90
29241;DHT22;16268;49.880;8.648;2022-08-14T01:56:46;21.50;99.90
29241;DHT22;16268;49.880;8.648;2022-08-14T01:59:19;21.50;99.90
29241;DHT22;16268;49.880;8.648;2022-08-14T02:01:47;21.50;99.90
29241;DHT22;16268;49.880;8.648;2022-08-14T02:04:14;21.50;99.90
29241;DHT22;16268;49.880;8.648;2022-08-14T02:06:39;21.50;99.90
29241;DHT22;16268;49.880;8.648;2022-08-14T02:09:07;21.50;99.90
29241;DHT22;16268;49.880;8.648;2022-08-14T02:11:33;21.40;99.90
29241;DHT22;16268;49.880;8.648;2022-08-14T02:14:10;21.40;99.90
29241;DHT22;16268;49.880;8.648;2022-08-14T02:16:39;21.50;99.90
29241;DHT22;16268;49.880;8.648;2022-08-14T02:19:11;21.40;99.90
29241;DHT22;16268;49.880;8.648;2022-08-14T02:21:38;21.40;99.90
29241;DHT22;16268;49.880;8.648;2022-08-14T02:24:04;21.50;99.90
29241;DHT22;16268;49.880;8.648;2022-08-14T02:26:33;21.50;99.90
29241;DHT22;16268;49.880;8.648;2022-08-14T02:29:08;21.40;99.90
29241;DHT22;16268;49.880;8.648;2022-08-14T02:31:39;21.40;99.90
29241;DHT22;16268;49.880;8.648;2022-08-14T02:34:29;21.40;99.90
29241;DHT22;16268;49.880;8.648;2022-08-14T02:37:00;21.40;99.90
29241;DHT22;16268;49.880;8.648;2022-08-14T02:39:28;21.30;99.90
29241;DHT22;16268;49.880;8.648;2022-08-14T02:41:54;21.30;99.90
29241;DHT22;16268;49.880;8.648;2022-08-14T02:44:20;21.30;99.90
29241;DHT22;16268;49.880;8.648;2022-08-14T02:46:48;21.20;99.90
29241;DHT22;16268;49.880;8.648;2022-08-14T02:49:14;21.20;99.90
29241;DHT22;16268;49.880;8.648;2022-08-14T02:51:40;21.10;99.90
29241;DHT22;16268;49.880;8.648;2022-08-14T02:54:07;21.10;99.90
29241;DHT22;16268;49.880;8.648;2022-08-14T02:56:33;21.00;99.90
29241;DHT22;16268;49.880;8.648;2022-08-14T02:59:04;21.00;99.90
29241;DHT22;16268;49.880;8.648;2022-08-14T03:01:29;20.90;99.90
29241;DHT22;16268;49.880;8.648;2022-08-14T03:03:55;20.90;99.90
29241;DHT22;16268;49.880;8.648;2022-08-14T03:06:21;20.80;99.90
29241;DHT22;16268;49.880;8.648;2022-08-14T03:08:52;20.80;99.90
29241;DHT22;16268;49.880;8.648;2022-08-14T03:11:18;20.80;99.90
29241;DHT22;16268;49.880;8.648;2022-08-14T03:13:49;20.70;99.90
29241;DHT22;16268;49.880;8.648;2022-08-14T03:16:20;20.70;99.90
29241;DHT22;16268;49.880;8.648;2022-08-14T03:18:48;20.70;99.90
29241;DHT22;16268;49.880;8.648;2022-08-14T03:21:16;20.70;99.90
29241;DHT22;16268;49.880;8.648;2022-08-14T03:23:45;20.70;99.90
29241;DHT22;16268;49.880;8.648;2022-08-14T03:26:14;20.60;99.90
29241;DHT22;16268;49.880;8.648;2022-08-14T03:28:42;20.70;99.90
29241;DHT22;16268;49.880;8.648;2022-08-14T03:31:10;20.70;99.90
29241;DHT22;16268;49.880;8.648;2022-08-14T03:33:37;20.70;99.90
29241;DHT22;16268;49.880;8.648;2022-08-14T03:36:15;20.70;99.90
29241;DHT22;16268;49.880;8.648;2022-08-14T03:38:42;20.60;99.90
29241;DHT22;16268;49.880;8.648;2022-08-14T03:41:09;20.70;99.90
29241;DHT22;16268;49.880;8.648;2022-08-14T03:43:42;20.60;99.90
29241;DHT22;16268;49.880;8.648;2022-08-14T03:46:09;20.50;99.90
29241;DHT22;16268;49.880;8.648;2022-08-14T03:48:36;20.50;99.90
29241;DHT22;16268;49.880;8.648;2022-08-14T03:51:04;20.50;99.90
29241;DHT22;16268;49.880;8.648;2022-08-14T03:53:33;20.40;99.90
29241;DHT22;16268;49.880;8.648;2022-08-14T03:56:04;20.30;99.90
29241;DHT22;16268;49.880;8.648;2022-08-14T03:58:30;20.30;99.90
29241;DHT22;16268;49.880;8.648;2022-08-14T04:00:57;20.30;99.90
29241;DHT22;16268;49.880;8.648;2022-08-14T04:03:22;20.20;99.90
29241;DHT22;16268;49.880;8.648;2022-08-14T04:05:49;20.20;99.90
29241;DHT22;16268;49.880;8.648;2022-08-14T04:08:15;20.10;99.90
29241;DHT22;16268;49.880;8.648;2022-08-14T04:10:41;20.20;99.90
29241;DHT22;16268;49.880;8.648;2022-08-14T04:13:07;20.20;99.90
29241;DHT22;16268;49.880;8.648;2022-08-14T04:15:33;20.20;99.90
29241;DHT22;16268;49.880;8.648;2022-08-14T04:18:03;20.30;99.90
29241;DHT22;16268;49.880;8.648;2022-08-14T04:20:31;20.30;99.90
29241;DHT22;16268;49.880;8.648;2022-08-14T04:22:56;20.30;99.90
29241;DHT22;16268;49.880;8.648;2022-08-14T04:25:22;20.20;99.90
29241;DHT22;16268;49.880;8.648;2022-08-14T04:27:48;20.30;99.90
29241;DHT22;16268;49.880;8.648;2022-08-14T04:30:14;20.30;99.90
29241;DHT22;16268;49.880;8.648;2022-08-14T04:32:39;20.30;99.90
29241;DHT22;16268;49.880;8.648;2022-08-14T04:35:05;20.40;99.90
29241;DHT22;16268;49.880;8.648;2022-08-14T04:37:31;20.30;99.90
29241;DHT22;16268;49.880;8.648;2022-08-14T04:40:15;20.30;99.90
29241;DHT22;16268;49.880;8.648;2022-08-14T04:42:59;20.40;99.90
29241;DHT22;16268;49.880;8.648;2022-08-14T04:45:44;20.40;99.90
29241;DHT22;16268;49.880;8.648;2022-08-14T04:48:12;20.40;99.90
29241;DHT22;16268;49.880;8.648;2022-08-14T04:50:41;20.50;99.90
29241;DHT22;16268;49.880;8.648;2022-08-14T04:53:07;20.40;99.90
29241;DHT22;16268;49.880;8.648;2022-08-14T04:55:32;20.40;99.90
29241;DHT22;16268;49.880;8.648;2022-08-14T04:57:58;20.40;99.90
29241;DHT22;16268;49.880;8.648;2022-08-14T05:00:24;20.40;99.90
29241;DHT22;16268;49.880;8.648;2022-08-14T05:02:49;20.30;99.90
29241;DHT22;16268;49.880;8.648;2022-08-14T05:05:15;20.40;99.90
29241;DHT22;16268;49.880;8.648;2022-08-14T05:07:41;20.30;99.90
29241;DHT22;16268;49.880;8.648;2022-08-14T05:10:07;20.30;99.90
29241;DHT22;16268;49.880;8.648;2022-08-14T05:12:33;20.30;99.90
29241;DHT22;16268;49.880;8.648;2022-08-14T05:14:59;20.30;99.90
29241;DHT22;16268;49.880;8.648;2022-08-14T05:17:24;20.30;99.90
29241;DHT22;16268;49.880;8.648;2022-08-14T05:19:51;20.30;99.90
29241;DHT22;16268;49.880;8.648;2022-08-14T05:22:17;20.40;99.90
29241;DHT22;16268;49.880;8.648;2022-08-14T05:24:44;20.40;99.90
29241;DHT22;16268;49.880;8.648;2022-08-14T05:27:12;20.50;99.90
29241;DHT22;16268;49.880;8.648;2022-08-14T05:29:41;20.70;99.90
29241;DHT22;16268;49.880;8.648;2022-08-14T05:32:09;21.00;99.90
29241;DHT22;16268;49.880;8.648;2022-08-14T05:34:38;21.20;99.90
29241;DHT22;16268;49.880;8.648;2022-08-14T05:37:03;21.30;99.90
29241;DHT22;16268;49.880;8.648;2022-08-14T05:39:29;21.40;99.90
29241;DHT22;16268;49.880;8.648;2022-08-14T05:41:55;21.40;99.90
29241;DHT22;16268;49.880;8.648;2022-08-14T05:44:21;21.20;99.90
29241;DHT22;16268;49.880;8.648;2022-08-14T05:46:47;21.20;99.90
29241;DHT22;16268;49.880;8.648;2022-08-14T05:49:13;21.10;99.90
29241;DHT22;16268;49.880;8.648;2022-08-14T05:51:39;21.10;99.90
29241;DHT22;16268;49.880;8.648;2022-08-14T05:54:06;21.20;99.90
29241;DHT22;16268;49.880;8.648;2022-08-14T05:56:31;21.30;99.90
29241;DHT22;16268;49.880;8.648;2022-08-14T05:58:57;21.50;99.90
29241;DHT22;16268;49.880;8.648;2022-08-14T06:01:23;21.90;99.90
29241;DHT22;16268;49.880;8.648;2022-08-14T06:03:49;22.90;99.90
29241;DHT22;16268;49.880;8.648;2022-08-14T06:06:16;23.80;99.90
29241;DHT22;16268;49.880;8.648;2022-08-14T06:08:41;24.60;99.90
29241;DHT22;16268;49.880;8.648;2022-08-14T06:11:07;25.30;99.90
29241;DHT22;16268;49.880;8.648;2022-08-14T06:13:38;25.70;99.90
29241;DHT22;16268;49.880;8.648;2022-08-14T06:16:04;26.20;99.90
29241;DHT22;16268;49.880;8.648;2022-08-14T06:18:30;26.30;99.90
29241;DHT22;16268;49.880;8.648;2022-08-14T06:20:55;26.80;99.90
29241;DHT22;16268;49.880;8.648;2022-08-14T06:23:21;27.40;99.90
29241;DHT22;16268;49.880;8.648;2022-08-14T06:25:47;27.20;99.90
29241;DHT22;16268;49.880;8.648;2022-08-14T06:28:21;27.30;99.90
29241;DHT22;16268;49.880;8.648;2022-08-14T06:30:47;27.70;98.90
29241;DHT22;16268;49.880;8.648;2022-08-14T06:33:15;27.30;99.40
29241;DHT22;16268;49.880;8.648;2022-08-14T06:35:40;27.50;99.20
29241;DHT22;16268;49.880;8.648;2022-08-14T06:38:06;27.60;98.90
29241;DHT22;16268;49.880;8.648;2022-08-14T06:40:34;28.00;98.00
29241;DHT22;16268;49.880;8.648;2022-08-14T06:43:04;28.30;97.10
29241;DHT22;16268;49.880;8.648;2022-08-14T06:45:31;28.70;95.90
29241;DHT22;16268;49.880;8.648;2022-08-14T06:47:58;28.90;95.00
29241;DHT22;16268;49.880;8.648;2022-08-14T06:50:24;28.90;94.90
29241;DHT22;16268;49.880;8.648;2022-08-14T06:52:52;28.50;95.20
29241;DHT22;16268;49.880;8.648;2022-08-14T06:55:18;28.00;95.80
29241;DHT22;16268;49.880;8.648;2022-08-14T06:57:46;27.90;96.70
29241;DHT22;16268;49.880;8.648;2022-08-14T07:00:17;28.20;96.70
29241;DHT22;16268;49.880;8.648;2022-08-14T07:02:43;28.30;95.60
29241;DHT22;16268;49.880;8.648;2022-08-14T07:05:27;27.80;96.20
29241;DHT22;16268;49.880;8.648;2022-08-14T07:08:27;27.30;97.20
29241;DHT22;16268;49.880;8.648;2022-08-14T07:10:56;27.30;98.10
29241;DHT22;16268;49.880;8.648;2022-08-14T07:13:23;27.30;97.30
29241;DHT22;16268;49.880;8.648;2022-08-14T07:15:50;27.30;97.60
29241;DHT22;16268;49.880;8.648;2022-08-14T07:18:21;27.90;97.00
29241;DHT22;16268;49.880;8.648;2022-08-14T07:20:48;27.80;96.40
29241;DHT22;16268;49.880;8.648;2022-08-14T07:23:14;27.80;96.80
29241;DHT22;16268;49.880;8.648;2022-08-14T07:25:41;28.00;96.10
29241;DHT22;16268;49.880;8.648;2022-08-14T07:28:19;27.70;96.70
29241;DHT22;16268;49.880;8.648;2022-08-14T07:30:45;27.10;97.90
29241;DHT22;16268;49.880;8.648;2022-08-14T07:33:11;27.00;98.70
29241;DHT22;16268;49.880;8.648;2022-08-14T07:35:39;27.00;98.80
29241;DHT22;16268;49.880;8.648;2022-08-14T07:38:05;27.00;98.70
29241;DHT22;16268;49.880;8.648;2022-08-14T07:40:31;27.00;98.70
29241;DHT22;16268;49.880;8.648;2022-08-14T07:42:57;27.40;98.30
29241;DHT22;16268;49.880;8.648;2022-08-14T07:45:23;27.50;97.00
29241;DHT22;16268;49.880;8.648;2022-08-14T07:47:49;27.50;97.30
29241;DHT22;16268;49.880;8.648;2022-08-14T07:50:18;26.80;98.30
29241;DHT22;16268;49.880;8.648;2022-08-14T07:52:46;27.10;98.60
29241;DHT22;16268;49.880;8.648;2022-08-14T07:55:13;27.10;98.10
29241;DHT22;16268;49.880;8.648;2022-08-14T07:57:43;27.20;97.90
29241;DHT22;16268;49.880;8.648;2022-08-14T08:00:12;27.20;97.60
29241;DHT22;16268;49.880;8.648;2022-08-14T08:02:42;28.00;97.50
29241;DHT22;16268;49.880;8.648;2022-08-14T08:05:10;29.60;94.90
29241;DHT22;16268;49.880;8.648;2022-08-14T08:07:37;30.20;93.30
29241;DHT22;16268;49.880;8.648;2022-08-14T08:10:09;30.00;91.80
29241;DHT22;16268;49.880;8.648;2022-08-14T08:12:55;30.50;90.40
29241;DHT22;16268;49.880;8.648;2022-08-14T08:15:25;30.10;90.40
29241;DHT22;16268;49.880;8.648;2022-08-14T08:17:52;30.30;88.60
29241;DHT22;16268;49.880;8.648;2022-08-14T08:20:20;30.20;87.00
29241;DHT22;16268;49.880;8.648;2022-08-14T08:22:48;29.90;86.20
29241;DHT22;16268;49.880;8.648;2022-08-14T08:25:16;29.80;86.20
29241;DHT22;16268;49.880;8.648;2022-08-14T08:27:41;30.60;85.70
29241;DHT22;16268;49.880;8.648;2022-08-14T08:30:08;30.80;84.50
29241;DHT22;16268;49.880;8.648;2022-08-14T08:32:42;30.60;86.50
29241;DHT22;16268;49.880;8.648;2022-08-14T08:35:22;31.80;81.70
29241;DHT22;16268;49.880;8.648;2022-08-14T08:37:49;31.60;80.40
29241;DHT22;16268;49.880;8.648;2022-08-14T08:40:36;31.60;78.60
29241;DHT22;16268;49.880;8.648;2022-08-14T08:43:06;31.40;79.80
29241;DHT22;16268;49.880;8.648;2022-08-14T08:45:34;31.70;78.00
29241;DHT22;16268;49.880;8.648;2022-08-14T08:48:01;31.10;78.20
29241;DHT22;16268;49.880;8.648;2022-08-14T08:50:34;30.70;79.70
29241;DHT22;16268;49.880;8.648;2022-08-14T08:53:03;30.90;77.90
29241;DHT22;16268;49.880;8.648;2022-08-14T08:57:58;29.90;80.40
29241;DHT22;16268;49.880;8.648;2022-08-14T09:00:25;30.10;81.00
29241;DHT22;16268;49.880;8.648;2022-08-14T09:03:00;29.90;80.40
29241;DHT22;16268;49.880;8.648;2022-08-14T09:05:27;29.80;79.10
29241;DHT22;16268;49.880;8.648;2022-08-14T09:07:53;31.40;77.10
29241;DHT22;16268;49.880;8.648;2022-08-14T09:10:19;31.60;77.50
29241;DHT22;16268;49.880;8.648;2022-08-14T09:12:46;31.60;73.70
29241;DHT22;16268;49.880;8.648;2022-08-14T09:15:11;31.30;73.40
29241;DHT22;16268;49.880;8.648;2022-08-14T09:17:37;31.40;73.40
29241;DHT22;16268;49.880;8.648;2022-08-14T09:20:03;31.80;71.10
29241;DHT22;16268;49.880;8.648;2022-08-14T09:22:30;31.60;70.20
29241;DHT22;16268;49.880;8.648;2022-08-14T09:24:56;32.00;70.90
29241;DHT22;16268;49.880;8.648;2022-08-14T09:27:22;32.20;69.30
29241;DHT22;16268;49.880;8.648;2022-08-14T09:29:47;32.00;67.20
29241;DHT22;16268;49.880;8.648;2022-08-14T09:32:21;31.50;68.90
29241;DHT22;16268;49.880;8.648;2022-08-14T09:35:20;31.80;67.00
29241;DHT22;16268;49.880;8.648;2022-08-14T09:38:15;31.60;67.00
29241;DHT22;16268;49.880;8.648;2022-08-14T09:40:58;30.70;68.50
29241;DHT22;16268;49.880;8.648;2022-08-14T09:43:58;31.20;69.20
29241;DHT22;16268;49.880;8.648;2022-08-14T09:46:24;31.70;65.90
29241;DHT22;16268;49.880;8.648;2022-08-14T09:49:03;31.80;64.80
29241;DHT22;16268;49.880;8.648;2022-08-14T09:51:31;31.60;66.70
29241;DHT22;16268;49.880;8.648;2022-08-14T09:54:03;31.10;67.00
29241;DHT22;16268;49.880;8.648;2022-08-14T09:56:50;31.40;64.60
29241;DHT22;16268;49.880;8.648;2022-08-14T09:59:17;31.20;64.60
29241;DHT22;16268;49.880;8.648;2022-08-14T10:01:47;31.70;64.80
29241;DHT22;16268;49.880;8.648;2022-08-14T10:04:24;32.40;62.30
29241;DHT22;16268;49.880;8.648;2022-08-14T10:06:51;32.30;61.60
29241;DHT22;16268;49.880;8.648;2022-08-14T10:09:17;33.30;61.70
29241;DHT22;16268;49.880;8.648;2022-08-14T10:11:55;33.90;58.90
29241;DHT22;16268;49.880;8.648;2022-08-14T10:14:23;33.70;57.80
29241;DHT22;16268;49.880;8.648;2022-08-14T10:16:56;32.70;58.30
29241;DHT22;16268;49.880;8.648;2022-08-14T10:19:24;31.60;59.10
29241;DHT22;16268;49.880;8.648;2022-08-14T10:22:06;31.30;60.00
29241;DHT22;16268;49.880;8.648;2022-08-14T10:24:39;31.90;58.60
29241;DHT22;16268;49.880;8.648;2022-08-14T10:27:15;32.80;58.70
29241;DHT22;16268;49.880;8.648;2022-08-14T10:29:47;33.70;56.80
29241;DHT22;16268;49.880;8.648;2022-08-14T10:32:13;34.10;54.50
29241;DHT22;16268;49.880;8.648;2022-08-14T10:34:39;34.00;54.70
29241;DHT22;16268;49.880;8.648;2022-08-14T10:37:12;33.10;54.00
29241;DHT22;16268;49.880;8.648;2022-08-14T10:39:39;32.40;52.60
29241;DHT22;16268;49.880;8.648;2022-08-14T10:42:07;32.60;54.50
29241;DHT22;16268;49.880;8.648;2022-08-14T10:44:38;33.10;54.20
29241;DHT22;16268;49.880;8.648;2022-08-14T10:47:06;33.00;55.30
29241;DHT22;16268;49.880;8.648;2022-08-14T10:49:39;33.00;54.60
29241;DHT22;16268;49.880;8.648;2022-08-14T10:52:19;32.90;52.40
29241;DHT22;16268;49.880;8.648;2022-08-14T10:54:46;33.20;52.60
29241;DHT22;16268;49.880;8.648;2022-08-14T10:57:26;33.00;53.90
29241;DHT22;16268;49.880;8.648;2022-08-14T10:59:59;33.30;52.90
29241;DHT22;16268;49.880;8.648;2022-08-14T11:02:35;33.80;53.00
29241;DHT22;16268;49.880;8.648;2022-08-14T11:05:07;34.10;52.20
29241;DHT22;16268;49.880;8.648;2022-08-14T11:07:34;34.30;51.70
29241;DHT22;16268;49.880;8.648;2022-08-14T11:10:10;34.50;51.60
29241;DHT22;16268;49.880;8.648;2022-08-14T11:15:05;33.80;50.90
29241;DHT22;16268;49.880;8.648;2022-08-14T11:17:32;33.80;51.00
29241;DHT22;16268;49.880;8.648;2022-08-14T11:20:03;32.90;51.80
29241;DHT22;16268;49.880;8.648;2022-08-14T11:22:30;32.50;52.70
29241;DHT22;16268;49.880;8.648;2022-08-14T11:25:01;32.90;53.70
29241;DHT22;16268;49.880;8.648;2022-08-14T11:27:28;32.80;52.60
29241;DHT22;16268;49.880;8.648;2022-08-14T11:30:03;32.30;52.90
29241;DHT22;16268;49.880;8.648;2022-08-14T11:32:29;32.10;53.80
29241;DHT22;16268;49.880;8.648;2022-08-14T11:34:59;31.90;53.40
29241;DHT22;16268;49.880;8.648;2022-08-14T11:37:27;32.00;53.80
29241;DHT22;16268;49.880;8.648;2022-08-14T11:39:54;32.10;53.80
29241;DHT22;16268;49.880;8.648;2022-08-14T11:42:25;32.00;53.60
29241;DHT22;16268;49.880;8.648;2022-08-14T11:44:52;32.00;53.20
29241;DHT22;16268;49.880;8.648;2022-08-14T11:47:20;31.90;52.80
29241;DHT22;16268;49.880;8.648;2022-08-14T11:49:46;31.80;53.40
29241;DHT22;16268;49.880;8.648;2022-08-14T11:52:15;32.10;53.90
29241;DHT22;16268;49.880;8.648;2022-08-14T11:54:43;32.20;52.30
29241;DHT22;16268;49.880;8.648;2022-08-14T11:57:17;32.40;51.30
29241;DHT22;16268;49.880;8.648;2022-08-14T11:59:44;32.40;50.80
29241;DHT22;16268;49.880;8.648;2022-08-14T12:02:15;32.30;51.20
29241;DHT22;16268;49.880;8.648;2022-08-14T12:04:50;32.40;52.50
29241;DHT22;16268;49.880;8.648;2022-08-14T12:07:17;32.60;51.00
29241;DHT22;16268;49.880;8.648;2022-08-14T12:09:44;32.80;51.30
29241;DHT22;16268;49.880;8.648;2022-08-14T12:12:24;32.70;51.00
29241;DHT22;16268;49.880;8.648;2022-08-14T12:14:55;32.30;51.90
29241;DHT22;16268;49.880;8.648;2022-08-14T12:17:31;32.40;51.50
29241;DHT22;16268;49.880;8.648;2022-08-14T12:20:07;32.20;50.70
29241;DHT22;16268;49.880;8.648;2022-08-14T12:22:39;32.00;50.90
29241;DHT22;16268;49.880;8.648;2022-08-14T12:25:07;31.90;51.00
29241;DHT22;16268;49.880;8.648;2022-08-14T12:27:43;31.90;51.20
29241;DHT22;16268;49.880;8.648;2022-08-14T12:33:02;31.90;51.50
29241;DHT22;16268;49.880;8.648;2022-08-14T12:35:42;32.00;51.30
29241;DHT22;16268;49.880;8.648;2022-08-14T12:38:10;32.10;51.00
29241;DHT22;16268;49.880;8.648;2022-08-14T12:40:50;32.20;50.80
29241;DHT22;16268;49.880;8.648;2022-08-14T12:43:17;32.50;49.20
29241;DHT22;16268;49.880;8.648;2022-08-14T12:46:02;32.40;49.30
29241;DHT22;16268;49.880;8.648;2022-08-14T12:48:28;32.50;49.00
29241;DHT22;16268;49.880;8.648;2022-08-14T12:50:55;32.30;49.20
29241;DHT22;16268;49.880;8.648;2022-08-14T12:53:33;32.40;49.60
29241;DHT22;16268;49.880;8.648;2022-08-14T12:56:00;32.30;49.70
29241;DHT22;16268;49.880;8.648;2022-08-14T12:58:28;32.40;49.60
29241;DHT22;16268;49.880;8.648;2022-08-14T13:00:55;32.30;50.20
29241;DHT22;16268;49.880;8.648;2022-08-14T13:03:25;32.30;50.70
29241;DHT22;16268;49.880;8.648;2022-08-14T13:05:52;32.30;50.60
29241;DHT22;16268;49.880;8.648;2022-08-14T13:08:18;32.20;50.80
29241;DHT22;16268;49.880;8.648;2022-08-14T13:10:44;32.30;50.00
29241;DHT22;16268;49.880;8.648;2022-08-14T13:13:11;32.20;50.00
29241;DHT22;16268;49.880;8.648;2022-08-14T13:15:40;32.50;50.20
29241;DHT22;16268;49.880;8.648;2022-08-14T13:18:09;32.60;49.30
29241;DHT22;16268;49.880;8.648;2022-08-14T13:20:36;32.40;49.10
29241;DHT22;16268;49.880;8.648;2022-08-14T13:23:05;32.10;49.10
29241;DHT22;16268;49.880;8.648;2022-08-14T13:25:33;32.40;49.00
29241;DHT22;16268;49.880;8.648;2022-08-14T13:27:59;32.50;49.10
29241;DHT22;16268;49.880;8.648;2022-08-14T13:30:26;32.40;49.60
29241;DHT22;16268;49.880;8.648;2022-08-14T13:32:53;32.40;49.80
29241;DHT22;16268;49.880;8.648;2022-08-14T13:35:20;32.50;49.20
29241;DHT22;16268;49.880;8.648;2022-08-14T13:37:47;32.30;49.10
29241;DHT22;16268;49.880;8.648;2022-08-14T13:40:15;32.50;49.30
29241;DHT22;16268;49.880;8.648;2022-08-14T13:42:42;32.50;49.10
29241;DHT22;16268;49.880;8.648;2022-08-14T13:45:10;32.30;48.70
29241;DHT22;16268;49.880;8.648;2022-08-14T13:47:36;32.50;48.70
29241;DHT22;16268;49.880;8.648;2022-08-14T13:50:05;32.70;48.60
29241;DHT22;16268;49.880;8.648;2022-08-14T13:52:57;32.90;48.90
29241;DHT22;16268;49.880;8.648;2022-08-14T13:55:28;32.80;49.10
29241;DHT22;16268;49.880;8.648;2022-08-14T13:57:59;32.90;49.00
29241;DHT22;16268;49.880;8.648;2022-08-14T14:00:25;32.90;49.10
29241;DHT22;16268;49.880;8.648;2022-08-14T14:02:51;32.90;49.40
29241;DHT22;16268;49.880;8.648;2022-08-14T14:05:18;32.90;49.30
29241;DHT22;16268;49.880;8.648;2022-08-14T14:07:47;32.70;49.40
29241;DHT22;16268;49.880;8.648;2022-08-14T14:10:16;32.50;49.50
29241;DHT22;16268;49.880;8.648;2022-08-14T14:12:42;32.40;49.50
29241;DHT22;16268;49.880;8.648;2022-08-14T14:15:10;32.30;50.10
29241;DHT22;16268;49.880;8.648;2022-08-14T14:17:37;32.60;50.20
29241;DHT22;16268;49.880;8.648;2022-08-14T14:20:05;32.70;50.10
29241;DHT22;16268;49.880;8.648;2022-08-14T14:22:32;32.30;50.30
29241;DHT22;16268;49.880;8.648;2022-08-14T14:24:58;32.30;50.80
29241;DHT22;16268;49.880;8.648;2022-08-14T14:27:26;32.20;50.90
29241;DHT22;16268;49.880;8.648;2022-08-14T14:29:56;32.10;50.90
29241;DHT22;16268;49.880;8.648;2022-08-14T14:32:30;32.20;51.40
29241;DHT22;16268;49.880;8.648;2022-08-14T14:35:00;32.40;51.30
29241;DHT22;16268;49.880;8.648;2022-08-14T14:37:27;32.60;50.80
29241;DHT22;16268;49.880;8.648;2022-08-14T14:39:55;32.60;50.60
29241;DHT22;16268;49.880;8.648;2022-08-14T14:42:24;32.60;50.60
29241;DHT22;16268;49.880;8.648;2022-08-14T14:44:55;32.50;50.70
29241;DHT22;16268;49.880;8.648;2022-08-14T14:47:22;32.50;50.90
29241;DHT22;16268;49.880;8.648;2022-08-14T14:49:49;32.40;51.40
29241;DHT22;16268;49.880;8.648;2022-08-14T14:52:15;32.30;51.20
29241;DHT22;16268;49.880;8.648;2022-08-14T14:54:42;32.30;51.40
29241;DHT22;16268;49.880;8.648;2022-08-14T14:57:11;32.40;51.10
29241;DHT22;16268;49.880;8.648;2022-08-14T14:59:39;32.30;51.30
29241;DHT22;16268;49.880;8.648;2022-08-14T15:02:05;32.30;51.50
29241;DHT22;16268;49.880;8.648;2022-08-14T15:04:36;32.20;51.60
29241;DHT22;16268;49.880;8.648;2022-08-14T15:07:03;32.20;51.60
29241;DHT22;16268;49.880;8.648;2022-08-14T15:09:29;32.20;51.90
29241;DHT22;16268;49.880;8.648;2022-08-14T15:11:54;32.20;51.80
29241;DHT22;16268;49.880;8.648;2022-08-14T15:14:22;32.00;51.40
29241;DHT22;16268;49.880;8.648;2022-08-14T15:16:48;32.00;51.80
29241;DHT22;16268;49.880;8.648;2022-08-14T15:19:13;32.00;51.80
29241;DHT22;16268;49.880;8.648;2022-08-14T15:21:39;31.90;51.70
29241;DHT22;16268;49.880;8.648;2022-08-14T15:24:05;31.90;51.80
29241;DHT22;16268;49.880;8.648;2022-08-14T15:26:31;32.00;51.70
29241;DHT22;16268;49.880;8.648;2022-08-14T15:28:56;32.00;51.90
29241;DHT22;16268;49.880;8.648;2022-08-14T15:31:22;31.90;51.90
29241;DHT22;16268;49.880;8.648;2022-08-14T15:33:47;32.00;51.80
29241;DHT22;16268;49.880;8.648;2022-08-14T15:36:31;32.00;51.60
29241;DHT22;16268;49.880;8.648;2022-08-14T15:38:59;32.00;51.50
29241;DHT22;16268;49.880;8.648;2022-08-14T15:41:25;32.00;51.80
29241;DHT22;16268;49.880;8.648;2022-08-14T15:43:51;32.00;52.20
29241;DHT22;16268;49.880;8.648;2022-08-14T15:46:17;31.90;51.90
29241;DHT22;16268;49.880;8.648;2022-08-14T15:48:44;31.90;52.30